Time;durP1;ratioP1;P1;durP2;ratioP2;P2;SDS_P1;SDS_P2;PMS_P1;PMS_P2;Temp;Humidity;BMP_temperature;BMP_pressure;BME280_temperature;BME280_humidity;BME280_pressure;Samples;Min_cycle;Max_cycle;Signal;HPM_P1;HPM_P2
2022/03/08 00:00:25;;;;;;;7.53;6.83;;;1.80;62.00;;;;;;5029248;28;20177;-89
2022/03/08 00:02:51;;;;;;;7.60;7.00;;;1.80;62.10;;;;;;5029676;28;20719;-89
2022/03/08 00:05:18;;;;;;;7.30;6.60;;;1.90;62.10;;;;;;5032239;28;20183;-89
2022/03/08 00:07:46;;;;;;;7.30;6.63;;;1.80;62.10;;;;;;5029757;28;20176;-91
2022/03/08 00:10:13;;;;;;;8.33;6.80;;;1.80;62.50;;;;;;5031517;28;20177;-91
2022/03/08 00:12:39;;;;;;;8.33;6.50;;;1.80;62.60;;;;;;5030592;28;20175;-90
2022/03/08 00:15:08;;;;;;;8.37;7.50;;;1.80;62.70;;;;;;5030012;28;20257;-89
2022/03/08 00:17:34;;;;;;;7.00;6.40;;;1.80;62.80;;;;;;5031241;28;20163;-88
2022/03/08 00:20:03;;;;;;;8.47;7.03;;;1.80;62.80;;;;;;5012654;28;20246;-91
2022/03/08 00:22:30;;;;;;;7.00;6.30;;;1.80;63.20;;;;;;5009629;28;20188;-89
2022/03/08 00:24:56;;;;;;;7.37;6.67;;;1.80;63.50;;;;;;5029194;28;20187;-89
2022/03/08 00:27:21;;;;;;;7.40;6.63;;;1.70;63.70;;;;;;5029518;28;20206;-90
2022/03/08 00:29:47;;;;;;;7.33;6.63;;;1.70;64.00;;;;;;5022059;28;20276;-90
2022/03/08 00:32:13;;;;;;;7.50;6.77;;;1.60;64.00;;;;;;5014761;28;20187;-90
2022/03/08 00:34:39;;;;;;;7.77;7.07;;;1.60;64.20;;;;;;4997876;28;20537;-90
2022/03/08 00:37:05;;;;;;;7.60;6.83;;;1.50;64.40;;;;;;4997920;28;20516;-92
2022/03/08 00:39:30;;;;;;;7.43;6.73;;;1.40;64.70;;;;;;4998085;28;20193;-89
2022/03/08 00:41:56;;;;;;;7.63;6.93;;;1.40;65.00;;;;;;4997329;28;20233;-89
2022/03/08 00:44:22;;;;;;;7.63;6.93;;;1.30;65.30;;;;;;4996779;28;20615;-88
2022/03/08 00:46:48;;;;;;;7.40;6.70;;;1.30;65.40;;;;;;5014554;28;20224;-89
2022/03/08 00:49:14;;;;;;;7.70;6.70;;;1.40;65.50;;;;;;5014967;28;20182;-87
2022/03/08 00:51:39;;;;;;;8.33;7.17;;;1.50;65.40;;;;;;5015371;28;20177;-88
2022/03/08 00:54:05;;;;;;;8.10;7.10;;;1.40;65.60;;;;;;4996434;28;20235;-89
2022/03/08 00:56:31;;;;;;;12.33;6.73;;;1.30;65.80;;;;;;4996288;28;20211;-89
2022/03/08 00:58:57;;;;;;;7.20;6.57;;;1.40;66.20;;;;;;5014484;28;20170;-89
2022/03/08 01:01:23;;;;;;;7.57;6.87;;;1.40;66.70;;;;;;5022088;28;20203;-83
2022/03/08 01:03:48;;;;;;;8.00;7.20;;;1.40;66.20;;;;;;5024580;28;20728;-91
2022/03/08 01:06:14;;;;;;;8.13;6.93;;;1.60;66.10;;;;;;5000825;28;20188;-90
2022/03/08 01:08:40;;;;;;;9.43;7.03;;;1.50;66.20;;;;;;5014841;28;20187;-91
2022/03/08 01:11:06;;;;;;;8.70;7.10;;;1.50;66.10;;;;;;5014308;28;20183;-92
2022/03/08 01:13:32;;;;;;;8.10;7.37;;;1.50;66.20;;;;;;5014548;28;20218;-91
2022/03/08 01:15:58;;;;;;;7.67;6.97;;;1.60;66.40;;;;;;4997113;28;20543;-90
2022/03/08 01:18:24;;;;;;;8.60;7.70;;;1.60;66.50;;;;;;5014752;28;20179;-92
2022/03/08 01:20:51;;;;;;;7.80;7.10;;;1.70;66.70;;;;;;4997709;28;20175;-91
2022/03/08 01:23:17;;;;;;;8.00;7.30;;;1.70;66.40;;;;;;5014143;28;20205;-92
2022/03/08 01:25:43;;;;;;;7.33;6.73;;;1.60;66.40;;;;;;4996820;28;20544;-93
2022/03/08 01:28:09;;;;;;;7.77;7.07;;;1.70;66.90;;;;;;4996816;28;20195;-92
2022/03/08 01:30:35;;;;;;;7.57;6.87;;;1.70;66.70;;;;;;5014561;28;20639;-91
2022/03/08 01:33:01;;;;;;;7.80;7.03;;;1.60;67.70;;;;;;5016144;28;20229;-92
2022/03/08 01:35:26;;;;;;;7.60;6.90;;;1.60;67.70;;;;;;5018073;28;20267;-92
2022/03/08 01:37:52;;;;;;;7.53;6.73;;;1.70;67.80;;;;;;5004269;28;20180;-87
2022/03/08 01:40:19;;;;;;;7.70;7.00;;;1.70;67.50;;;;;;5017316;28;20251;-92
2022/03/08 01:42:48;;;;;;;7.90;7.20;;;1.70;67.80;;;;;;5010419;28;20266;-92
2022/03/08 01:45:15;;;;;;;7.97;7.17;;;1.80;67.50;;;;;;5001177;28;20616;-93
2022/03/08 01:47:41;;;;;;;7.87;7.13;;;1.70;67.70;;;;;;5000704;28;20524;-92
2022/03/08 01:50:08;;;;;;;7.60;6.90;;;1.60;67.70;;;;;;5017959;28;20189;-92
2022/03/08 01:52:34;;;;;;;8.13;7.33;;;1.80;67.90;;;;;;5018326;28;20183;-92
2022/03/08 01:55:00;;;;;;;7.53;6.83;;;1.70;67.50;;;;;;5018157;28;20735;-91
2022/03/08 01:57:26;;;;;;;7.80;7.07;;;1.80;67.30;;;;;;5000514;28;20234;-90
2022/03/08 01:59:53;;;;;;;7.73;7.03;;;1.80;67.60;;;;;;5018079;28;20172;-92
2022/03/08 02:02:20;;;;;;;7.17;6.47;;;1.70;67.60;;;;;;5000417;28;20181;-92
2022/03/08 02:04:47;;;;;;;7.63;6.93;;;1.80;67.80;;;;;;5018156;28;20203;-91
2022/03/08 02:07:13;;;;;;;8.23;7.30;;;1.80;67.90;;;;;;5017747;28;20181;-92
2022/03/08 02:09:39;;;;;;;7.43;6.73;;;1.90;67.80;;;;;;5017649;28;20181;-93
2022/03/08 02:12:05;;;;;;;7.83;7.07;;;1.80;67.70;;;;;;5000135;28;20183;-91
2022/03/08 02:14:31;;;;;;;7.50;6.63;;;1.80;68.20;;;;;;5017534;28;20170;-92
2022/03/08 02:16:57;;;;;;;9.67;7.10;;;1.80;68.10;;;;;;5018005;28;20183;-91
2022/03/08 02:19:24;;;;;;;8.13;7.00;;;1.60;68.30;;;;;;5019049;28;20170;-88
2022/03/08 02:21:50;;;;;;;7.70;6.93;;;1.60;68.50;;;;;;5006649;28;20203;-89
2022/03/08 02:24:17;;;;;;;7.50;6.80;;;1.80;68.70;;;;;;5019890;28;20685;-91
2022/03/08 02:26:44;;;;;;;8.30;7.30;;;1.80;68.80;;;;;;5017536;28;20696;-90
2022/03/08 02:29:11;;;;;;;8.63;7.60;;;1.80;68.50;;;;;;5000013;28;20268;-91
2022/03/08 02:31:37;;;;;;;10.07;7.43;;;1.70;68.50;;;;;;4999145;28;20219;-88
2022/03/08 02:34:03;;;;;;;8.57;6.70;;;1.70;68.40;;;;;;4999992;28;20734;-87
2022/03/08 02:36:29;;;;;;;7.57;6.87;;;1.70;68.20;;;;;;5017743;28;20176;-91
2022/03/08 02:38:56;;;;;;;7.90;7.10;;;1.80;68.30;;;;;;4999560;28;20182;-92
2022/03/08 02:41:22;;;;;;;7.77;7.10;;;1.80;68.40;;;;;;5017001;28;20173;-88
2022/03/08 02:43:48;;;;;;;8.40;7.33;;;1.70;68.50;;;;;;5016573;28;20214;-91
2022/03/08 02:46:14;;;;;;;8.30;7.50;;;1.70;68.50;;;;;;5016879;28;20643;-91
2022/03/08 02:48:40;;;;;;;7.50;6.83;;;1.70;68.40;;;;;;5016720;28;20178;-91
2022/03/08 02:51:05;;;;;;;7.80;7.10;;;1.70;68.30;;;;;;5023775;28;20152;-88
2022/03/08 02:53:31;;;;;;;8.03;7.30;;;1.70;68.40;;;;;;5027243;28;20635;-90
2022/03/08 02:55:58;;;;;;;8.30;7.40;;;1.60;68.50;;;;;;5016638;28;20207;-91
2022/03/08 02:58:23;;;;;;;8.10;7.30;;;1.50;68.60;;;;;;5016567;28;20172;-91
2022/03/08 03:00:49;;;;;;;7.90;7.17;;;1.50;68.90;;;;;;5016231;28;20737;-92
2022/03/08 03:03:15;;;;;;;8.23;7.43;;;1.50;68.80;;;;;;5016073;28;20207;-89
2022/03/08 03:05:41;;;;;;;8.63;7.73;;;1.50;68.80;;;;;;5015838;28;20233;-88
2022/03/08 03:08:07;;;;;;;10.07;7.90;;;1.50;68.70;;;;;;4998390;28;20211;-88
2022/03/08 03:10:33;;;;;;;9.17;7.23;;;1.50;68.70;;;;;;5015914;28;20240;-89
2022/03/08 03:12:59;;;;;;;9.77;7.77;;;1.50;68.80;;;;;;4998238;28;20180;-90
2022/03/08 03:15:26;;;;;;;9.33;7.93;;;1.50;69.00;;;;;;5017533;28;20183;-91
2022/03/08 03:17:53;;;;;;;8.03;7.13;;;1.40;69.20;;;;;;5000254;28;20223;-90
2022/03/08 03:20:21;;;;;;;8.67;7.77;;;1.40;69.10;;;;;;5017824;28;20172;-90
2022/03/08 03:22:47;;;;;;;7.57;6.87;;;1.40;69.20;;;;;;5017462;28;20177;-90
2022/03/08 03:25:15;;;;;;;8.50;7.70;;;1.50;69.30;;;;;;5017441;28;20190;-90
2022/03/08 03:27:42;;;;;;;8.40;7.57;;;1.50;69.10;;;;;;5017873;28;20175;-91
2022/03/08 03:30:10;;;;;;;8.30;7.50;;;1.50;69.10;;;;;;4998510;28;20217;-91
2022/03/08 03:32:36;;;;;;;8.40;7.40;;;1.50;69.10;;;;;;5015937;28;20232;-92
2022/03/08 03:35:04;;;;;;;8.70;7.63;;;1.40;69.00;;;;;;5016157;28;20228;-91
2022/03/08 03:37:29;;;;;;;9.00;8.00;;;1.40;69.10;;;;;;5024673;28;20172;-91
2022/03/08 03:39:55;;;;;;;9.17;8.27;;;1.40;69.20;;;;;;5019643;28;20614;-92
2022/03/08 03:42:21;;;;;;;10.33;7.63;;;1.40;69.30;;;;;;4998275;28;20641;-90
2022/03/08 03:44:47;;;;;;;7.10;6.50;;;1.40;69.30;;;;;;4998010;28;20213;-92
2022/03/08 03:47:13;;;;;;;8.30;7.50;;;1.30;69.50;;;;;;4998987;28;20182;-90
2022/03/08 03:49:38;;;;;;;9.73;7.63;;;1.20;69.80;;;;;;4998713;28;20639;-92
2022/03/08 03:52:05;;;;;;;8.90;7.50;;;1.20;69.90;;;;;;5017964;28;20664;-90
2022/03/08 03:54:31;;;;;;;8.97;8.17;;;1.20;70.00;;;;;;5038636;28;20160;-88
2022/03/08 03:56:57;;;;;;;10.23;7.33;;;1.20;70.10;;;;;;5038806;28;20174;-90
2022/03/08 03:59:23;;;;;;;8.27;7.47;;;1.20;70.20;;;;;;5016899;28;20169;-89
2022/03/08 04:01:48;;;;;;;8.37;7.57;;;1.20;70.20;;;;;;5015912;28;20196;-90
2022/03/08 04:04:14;;;;;;;8.53;7.73;;;1.20;70.20;;;;;;5015774;28;20276;-91
2022/03/08 04:06:40;;;;;;;8.60;7.50;;;1.20;70.00;;;;;;5027025;28;20175;-88
2022/03/08 04:09:06;;;;;;;8.23;7.43;;;1.20;70.00;;;;;;5033856;28;20549;-90
2022/03/08 04:11:32;;;;;;;8.10;7.27;;;1.30;70.00;;;;;;5024360;28;20173;-90
2022/03/08 04:13:59;;;;;;;8.17;7.37;;;1.20;69.80;;;;;;5015885;28;20238;-89
2022/03/08 04:16:25;;;;;;;8.53;7.63;;;1.20;70.00;;;;;;5015427;28;20181;-90
2022/03/08 04:18:51;;;;;;;9.93;7.67;;;1.20;69.70;;;;;;5015212;28;20188;-91
2022/03/08 04:21:17;;;;;;;8.40;7.60;;;1.20;69.80;;;;;;5015762;28;20522;-91
2022/03/08 04:23:42;;;;;;;8.50;7.63;;;1.10;69.90;;;;;;5014905;28;20266;-90
2022/03/08 04:26:08;;;;;;;8.57;7.70;;;1.10;69.90;;;;;;4998140;28;20179;-89
2022/03/08 04:28:34;;;;;;;9.07;7.93;;;1.10;70.00;;;;;;4998070;28;20187;-89
2022/03/08 04:31:00;;;;;;;8.53;7.67;;;1.10;70.00;;;;;;5015148;28;20258;-92
2022/03/08 04:33:26;;;;;;;8.30;7.50;;;1.10;69.80;;;;;;4997076;28;20325;-91
2022/03/08 04:35:52;;;;;;;8.23;7.43;;;1.10;69.90;;;;;;4997583;28;20650;-92
2022/03/08 04:38:17;;;;;;;8.67;7.67;;;1.10;69.70;;;;;;5015178;28;20175;-89
2022/03/08 04:40:43;;;;;;;8.47;7.37;;;1.10;69.70;;;;;;5017214;28;20174;-83
2022/03/08 04:43:09;;;;;;;7.93;7.00;;;1.10;69.50;;;;;;5030311;28;20203;-87
2022/03/08 04:45:35;;;;;;;8.50;7.70;;;1.00;69.50;;;;;;5016463;28;20181;-90
2022/03/08 04:48:01;;;;;;;8.27;7.43;;;1.00;69.70;;;;;;5015159;28;20217;-90
2022/03/08 04:50:26;;;;;;;9.00;8.10;;;1.00;69.80;;;;;;5014535;28;20211;-90
2022/03/08 04:52:52;;;;;;;9.47;7.67;;;1.00;69.80;;;;;;5020395;28;20634;-88
2022/03/08 04:55:19;;;;;;;8.73;7.87;;;1.00;69.80;;;;;;5003198;28;20186;-91
2022/03/08 04:57:46;;;;;;;9.40;8.40;;;1.00;69.70;;;;;;4999599;28;20510;-92
2022/03/08 05:00:13;;;;;;;8.27;7.43;;;1.00;69.70;;;;;;4997629;28;20545;-91
2022/03/08 05:02:40;;;;;;;8.93;7.93;;;1.00;69.80;;;;;;5015205;28;20181;-91
2022/03/08 05:05:10;;;;;;;8.27;7.47;;;1.00;69.80;;;;;;5014798;28;20173;-91
2022/03/08 05:07:37;;;;;;;8.43;7.57;;;1.00;69.90;;;;;;5001031;28;20264;-88
2022/03/08 05:10:05;;;;;;;7.87;7.17;;;1.00;69.90;;;;;;4998308;28;20221;-89
2022/03/08 05:12:31;;;;;;;8.73;7.83;;;1.00;69.80;;;;;;4998359;28;20185;-89
2022/03/08 05:14:59;;;;;;;7.70;7.00;;;1.00;69.80;;;;;;5014308;28;20229;-88
2022/03/08 05:17:26;;;;;;;8.23;7.40;;;1.00;69.60;;;;;;4997889;28;20205;-92
2022/03/08 05:19:52;;;;;;;10.30;7.73;;;1.00;69.50;;;;;;5002441;28;20183;-91
2022/03/08 05:22:18;;;;;;;9.33;6.93;;;1.00;69.50;;;;;;5023701;28;20597;-92
2022/03/08 05:24:44;;;;;;;11.70;8.10;;;0.90;69.60;;;;;;5020491;28;20221;-91
2022/03/08 05:27:10;;;;;;;8.70;7.80;;;0.90;69.60;;;;;;5003970;28;20634;-91
2022/03/08 05:29:36;;;;;;;7.93;7.13;;;1.00;69.50;;;;;;5001342;28;20188;-92
2022/03/08 05:32:03;;;;;;;9.57;7.97;;;1.00;69.30;;;;;;5004765;28;20249;-92
2022/03/08 05:34:30;;;;;;;9.43;7.63;;;1.00;69.40;;;;;;5018584;28;20238;-91
2022/03/08 05:36:56;;;;;;;9.33;7.23;;;1.00;69.30;;;;;;5000969;28;20211;-90
2022/03/08 05:39:23;;;;;;;7.80;7.00;;;1.00;69.30;;;;;;5001112;28;20222;-90
2022/03/08 05:41:49;;;;;;;8.67;7.50;;;1.00;69.40;;;;;;5007161;28;20187;-92
2022/03/08 05:44:16;;;;;;;8.80;7.90;;;0.90;69.40;;;;;;5023233;28;20277;-91
2022/03/08 05:46:42;;;;;;;8.90;7.57;;;0.90;69.60;;;;;;5019245;28;20190;-89
2022/03/08 05:49:08;;;;;;;8.47;7.50;;;0.90;69.30;;;;;;5019474;28;20186;-88
2022/03/08 05:51:34;;;;;;;8.50;7.17;;;0.90;69.40;;;;;;5001481;28;20693;-88
2022/03/08 05:54:00;;;;;;;7.97;7.10;;;0.90;69.30;;;;;;5017870;28;20204;-89
2022/03/08 05:56:26;;;;;;;8.47;7.60;;;0.90;69.20;;;;;;5000569;28;20223;-89
2022/03/08 05:58:52;;;;;;;7.90;6.80;;;1.00;69.20;;;;;;5017546;28;20178;-89
2022/03/08 06:01:18;;;;;;;8.10;7.30;;;1.00;69.10;;;;;;5000615;28;20211;-86
2022/03/08 06:03:44;;;;;;;7.93;7.13;;;1.00;69.20;;;;;;5020537;28;21256;-89
2022/03/08 06:06:10;;;;;;;9.10;7.37;;;1.00;69.20;;;;;;5020896;28;20220;-89
2022/03/08 06:08:35;;;;;;;8.83;6.53;;;1.00;68.90;;;;;;5022519;28;20183;-89
2022/03/08 06:11:01;;;;;;;7.67;6.87;;;1.10;68.80;;;;;;5038389;28;20182;-89
2022/03/08 06:13:27;;;;;;;7.67;6.87;;;1.10;68.90;;;;;;5019670;28;20188;-88
2022/03/08 06:15:53;;;;;;;8.13;7.33;;;1.10;69.00;;;;;;5036633;28;20637;-89
2022/03/08 06:18:18;;;;;;;8.00;7.20;;;1.10;69.00;;;;;;5019937;28;20182;-90
2022/03/08 06:20:44;;;;;;;8.00;7.20;;;1.20;68.80;;;;;;5019488;28;20187;-91
2022/03/08 06:23:10;;;;;;;7.90;7.10;;;1.10;68.60;;;;;;5038133;28;20209;-91
2022/03/08 06:25:36;;;;;;;9.17;7.20;;;1.20;68.30;;;;;;5021738;28;20560;-88
2022/03/08 06:28:02;;;;;;;7.33;6.60;;;1.30;68.30;;;;;;5038430;28;20583;-89
2022/03/08 06:30:28;;;;;;;9.17;6.93;;;1.20;68.30;;;;;;5046694;28;20181;-87
2022/03/08 06:32:54;;;;;;;7.87;7.07;;;1.30;68.30;;;;;;5035251;28;20227;-85
2022/03/08 06:35:20;;;;;;;8.53;7.63;;;1.40;68.50;;;;;;5029193;28;20545;-86
2022/03/08 06:37:46;;;;;;;11.07;7.40;;;1.40;68.10;;;;;;5039184;28;20259;-89
2022/03/08 06:40:12;;;;;;;8.07;7.13;;;1.40;68.30;;;;;;5020731;28;20177;-91
2022/03/08 06:42:38;;;;;;;11.30;7.27;;;1.50;68.00;;;;;;5058321;28;20205;-93
2022/03/08 06:45:06;;;;;;;9.40;6.90;;;1.50;67.90;;;;;;5022107;28;20300;-90
2022/03/08 06:47:31;;;;;;;9.20;7.20;;;1.50;67.90;;;;;;5039949;28;20194;-88
2022/03/08 06:49:58;;;;;;;8.27;6.63;;;1.50;68.00;;;;;;5041736;28;20562;-92
2022/03/08 06:52:23;;;;;;;8.40;7.57;;;1.50;68.00;;;;;;5018877;28;20250;-92
2022/03/08 06:54:49;;;;;;;8.57;7.70;;;1.60;67.80;;;;;;5018553;28;20530;-92
2022/03/08 06:57:15;;;;;;;10.13;7.37;;;1.60;67.80;;;;;;5021941;28;20193;-93
2022/03/08 06:59:41;;;;;;;9.20;7.47;;;1.70;67.80;;;;;;5018956;28;20206;-93
2022/03/08 07:02:07;;;;;;;8.23;6.77;;;1.60;67.70;;;;;;5039577;28;20173;-91
2022/03/08 07:04:32;;;;;;;13.97;7.23;;;1.70;67.60;;;;;;5040501;28;20234;-91
2022/03/08 07:06:59;;;;;;;10.93;7.43;;;1.70;67.50;;;;;;5037293;28;20186;-93
2022/03/08 07:09:25;;;;;;;8.10;7.30;;;1.80;67.50;;;;;;5018288;28;20236;-92
2022/03/08 07:11:52;;;;;;;8.30;7.50;;;1.80;67.20;;;;;;5019101;28;20652;-92
2022/03/08 07:14:17;;;;;;;7.47;6.73;;;1.90;67.20;;;;;;5038370;28;20504;-93
2022/03/08 07:16:47;;;;;;;9.17;7.17;;;2.00;67.00;;;;;;5035779;28;20178;-90
2022/03/08 07:19:13;;;;;;;8.63;7.03;;;2.10;66.80;;;;;;5017758;28;20179;-93
2022/03/08 07:21:40;;;;;;;8.60;6.57;;;2.20;66.80;;;;;;5018551;28;20179;-92
2022/03/08 07:24:06;;;;;;;7.57;6.83;;;2.30;66.30;;;;;;5018434;28;20360;-91
2022/03/08 07:26:32;;;;;;;8.77;6.50;;;2.40;66.20;;;;;;5018208;28;20179;-92
2022/03/08 07:28:58;;;;;;;10.33;7.47;;;2.50;65.40;;;;;;5017957;28;20186;-91
2022/03/08 07:31:24;;;;;;;7.00;6.30;;;2.40;65.10;;;;;;5018049;28;20201;-92
2022/03/08 07:33:51;;;;;;;7.97;6.40;;;2.70;64.60;;;;;;4953787;28;1531897;-93
2022/03/08 07:36:17;;;;;;;8.20;6.07;;;2.90;64.00;;;;;;5019768;28;20642;-91
2022/03/08 07:38:43;;;;;;;6.80;6.17;;;3.00;63.40;;;;;;5001955;28;20190;-89
2022/03/08 07:41:08;;;;;;;8.27;6.63;;;3.20;63.40;;;;;;4999792;28;20185;-90
2022/03/08 07:43:34;;;;;;;7.57;6.50;;;3.30;63.40;;;;;;5005407;28;20227;-92
2022/03/08 07:46:02;;;;;;;7.63;6.30;;;3.50;62.90;;;;;;5002308;28;20531;-89
2022/03/08 07:48:27;;;;;;;9.87;8.50;;;3.60;61.90;;;;;;5016574;28;20176;-92
2022/03/08 07:50:53;;;;;;;7.80;7.00;;;3.70;61.90;;;;;;4998037;28;20674;-89
2022/03/08 07:53:19;;;;;;;10.97;6.23;;;3.80;62.20;;;;;;4997762;28;20276;-89
2022/03/08 07:55:45;;;;;;;6.60;5.93;;;3.90;61.70;;;;;;4998361;28;20231;-89
2022/03/08 07:58:13;;;;;;;7.60;6.07;;;4.00;61.60;;;;;;4998061;28;20688;-89
2022/03/08 08:00:40;;;;;;;6.80;6.07;;;4.10;61.00;;;;;;4998025;28;20551;-92
2022/03/08 08:03:07;;;;;;;6.77;5.70;;;4.10;61.00;;;;;;4997586;28;20235;-88
2022/03/08 08:05:36;;;;;;;5.80;5.30;;;4.10;61.10;;;;;;5015539;28;20223;-89
2022/03/08 08:08:04;;;;;;;8.27;6.13;;;4.30;60.70;;;;;;4997281;28;20176;-89
2022/03/08 08:10:30;;;;;;;5.80;5.30;;;4.30;60.40;;;;;;5014984;28;20184;-89
2022/03/08 08:12:56;;;;;;;6.00;5.40;;;4.20;60.30;;;;;;4997514;28;20582;-90
2022/03/08 08:15:22;;;;;;;7.13;5.87;;;4.10;60.60;;;;;;4997817;28;20196;-90
2022/03/08 08:17:51;;;;;;;6.00;5.50;;;4.00;60.70;;;;;;5015403;28;20560;-91
2022/03/08 08:20:17;;;;;;;5.87;5.23;;;4.00;60.80;;;;;;5015319;28;20189;-89
2022/03/08 08:22:43;;;;;;;6.17;5.57;;;4.10;60.60;;;;;;5015931;28;20514;-91
2022/03/08 08:25:10;;;;;;;5.90;5.30;;;4.20;60.90;;;;;;4997521;28;20213;-89
2022/03/08 08:27:37;;;;;;;8.30;5.97;;;4.20;60.50;;;;;;5015338;28;20255;-90
2022/03/08 08:30:04;;;;;;;6.70;6.10;;;4.30;60.30;;;;;;5015484;28;20569;-90
2022/03/08 08:32:30;;;;;;;7.47;5.43;;;4.40;60.40;;;;;;5010865;28;20583;-90
2022/03/08 08:34:56;;;;;;;7.23;5.57;;;4.30;60.40;;;;;;5041956;28;20261;-89
2022/03/08 08:37:22;;;;;;;6.53;5.83;;;4.40;60.50;;;;;;5023826;28;20204;-89
2022/03/08 08:39:48;;;;;;;6.93;5.70;;;4.20;60.60;;;;;;5034514;28;20176;-91
2022/03/08 08:42:14;;;;;;;6.30;5.70;;;4.20;60.70;;;;;;5016913;28;20183;-89
2022/03/08 08:44:40;;;;;;;6.87;6.27;;;4.20;61.10;;;;;;5034210;28;20330;-89
2022/03/08 08:47:06;;;;;;;5.70;5.10;;;4.30;61.10;;;;;;5016690;28;20206;-89
2022/03/08 08:49:31;;;;;;;5.93;5.40;;;4.30;60.70;;;;;;5016534;28;20184;-88
2022/03/08 08:51:57;;;;;;;6.90;5.40;;;4.40;60.80;;;;;;5033989;28;20172;-88
2022/03/08 08:54:23;;;;;;;8.27;5.53;;;4.40;60.40;;;;;;5015954;28;20176;-88
2022/03/08 08:56:49;;;;;;;6.13;5.50;;;4.30;60.30;;;;;;5033684;28;20215;-89
2022/03/08 08:59:15;;;;;;;6.63;5.13;;;4.30;61.20;;;;;;5016451;28;20176;-91
2022/03/08 09:01:41;;;;;;;5.50;5.00;;;4.40;59.80;;;;;;5016808;28;20172;-89
2022/03/08 09:04:07;;;;;;;8.03;5.13;;;4.50;59.60;;;;;;5034378;28;20676;-90
2022/03/08 09:06:33;;;;;;;3.70;3.40;;;4.50;59.50;;;;;;5039980;28;20182;-89
2022/03/08 09:08:59;;;;;;;4.03;3.73;;;4.60;57.10;;;;;;5039415;28;20287;-92
2022/03/08 09:11:25;;;;;;;3.90;3.60;;;4.70;57.40;;;;;;5019920;28;20177;-92
2022/03/08 09:13:52;;;;;;;3.60;3.30;;;4.80;57.40;;;;;;5017227;28;20191;-90
2022/03/08 09:16:18;;;;;;;3.93;3.30;;;4.90;56.30;;;;;;5035161;28;20187;-89
2022/03/08 09:18:45;;;;;;;3.73;3.30;;;5.00;56.00;;;;;;5016788;28;20179;-91
2022/03/08 09:21:14;;;;;;;4.37;2.90;;;5.00;55.60;;;;;;5017274;28;20214;-92
2022/03/08 09:23:40;;;;;;;2.90;2.70;;;5.00;55.10;;;;;;5016308;28;20239;-88
2022/03/08 09:26:06;;;;;;;4.67;3.00;;;4.90;54.80;;;;;;5018178;28;20184;-89
2022/03/08 09:28:32;;;;;;;3.17;2.97;;;4.80;54.70;;;;;;5037106;28;20176;-87
2022/03/08 09:31:01;;;;;;;4.23;2.80;;;4.80;54.80;;;;;;5017260;28;20184;-88
2022/03/08 09:33:29;;;;;;;5.17;3.20;;;4.80;55.10;;;;;;5034588;28;20235;-89
2022/03/08 09:35:55;;;;;;;4.43;2.93;;;4.70;55.30;;;;;;5034344;28;20173;-88
2022/03/08 09:38:21;;;;;;;3.50;3.20;;;4.80;55.70;;;;;;5033612;28;20180;-90
2022/03/08 09:40:49;;;;;;;3.83;3.00;;;5.00;55.80;;;;;;5033905;28;20195;-90
2022/03/08 09:43:15;;;;;;;4.10;3.20;;;5.10;55.60;;;;;;5033885;28;20199;-88
2022/03/08 09:45:42;;;;;;;3.27;3.07;;;5.10;55.40;;;;;;5034423;28;20633;-88
2022/03/08 09:48:09;;;;;;;3.33;3.03;;;5.00;55.00;;;;;;5016293;28;20199;-89
2022/03/08 09:50:35;;;;;;;4.07;3.07;;;5.10;55.40;;;;;;5016153;28;20220;-87
2022/03/08 09:53:02;;;;;;;2.90;2.70;;;5.20;54.80;;;;;;5033767;28;20165;-89
2022/03/08 09:55:28;;;;;;;3.40;3.10;;;5.10;54.90;;;;;;5016503;28;20180;-88
2022/03/08 09:57:54;;;;;;;3.13;2.93;;;5.20;54.50;;;;;;5019963;28;20187;-89
2022/03/08 10:00:23;;;;;;;4.07;3.10;;;5.30;54.20;;;;;;5022019;28;20683;-90
2022/03/08 10:02:54;;;;;;;4.00;3.60;;;5.40;54.60;;;;;;5039732;28;20171;-87
2022/03/08 10:05:25;;;;;;;3.33;3.13;;;5.40;54.50;;;;;;5022495;28;20560;-88
2022/03/08 10:08:13;;;;;;;3.23;3.03;;;5.40;54.40;;;;;;5020268;28;20633;-91
2022/03/08 10:10:51;;;;;;;4.33;3.93;;;5.40;54.70;;;;;;5037542;28;20163;-91
2022/03/08 10:13:18;;;;;;;4.40;4.10;;;5.60;55.20;;;;;;5036810;28;20164;-92
2022/03/08 10:15:44;;;;;;;4.00;3.70;;;5.80;55.70;;;;;;5037192;28;20175;-91
2022/03/08 10:18:10;;;;;;;3.93;3.63;;;5.80;55.20;;;;;;5038218;28;20178;-88
2022/03/08 10:20:36;;;;;;;3.67;3.47;;;5.80;55.10;;;;;;5019500;28;20176;-88
2022/03/08 10:23:12;;;;;;;4.17;3.60;;;5.70;54.70;;;;;;5025345;28;20173;-92
2022/03/08 10:25:37;;;;;;;5.07;3.57;;;5.60;55.20;;;;;;5020519;28;20168;-89
2022/03/08 10:28:05;;;;;;;3.60;3.40;;;5.70;55.00;;;;;;5020988;28;20270;-89
2022/03/08 10:30:43;;;;;;;3.80;3.50;;;5.80;54.90;;;;;;5047202;28;20174;-89
2022/03/08 10:33:30;;;;;;;5.00;3.67;;;5.80;55.10;;;;;;5047170;28;20235;-87
2022/03/08 10:35:56;;;;;;;4.13;3.53;;;5.80;55.10;;;;;;5022700;28;20178;-92
2022/03/08 10:38:21;;;;;;;5.10;3.53;;;5.80;55.00;;;;;;5019377;28;20177;-90
2022/03/08 10:40:47;;;;;;;4.30;3.90;;;5.80;55.00;;;;;;5038040;28;20175;-89
2022/03/08 10:43:15;;;;;;;4.83;4.30;;;5.90;55.20;;;;;;5019434;28;20203;-89
2022/03/08 10:45:48;;;;;;;4.27;3.63;;;6.00;55.30;;;;;;5036759;28;20248;-89
2022/03/08 10:48:18;;;;;;;3.93;3.63;;;5.80;55.30;;;;;;5037007;28;20164;-90
2022/03/08 10:50:49;;;;;;;3.80;3.50;;;5.70;55.30;;;;;;5019122;28;20184;-90
2022/03/08 10:53:25;;;;;;;4.10;3.80;;;5.70;55.60;;;;;;5018901;28;20545;-91
2022/03/08 10:55:55;;;;;;;4.87;3.30;;;5.70;55.30;;;;;;5018686;28;20263;-89
2022/03/08 10:58:22;;;;;;;4.10;3.80;;;5.80;55.10;;;;;;5019596;28;20315;-89
2022/03/08 11:00:55;;;;;;;3.57;3.33;;;5.80;55.20;;;;;;5036644;28;20173;-88
2022/03/08 11:03:22;;;;;;;4.67;3.30;;;6.00;54.80;;;;;;5036786;28;20211;-91
2022/03/08 11:05:52;;;;;;;4.17;3.07;;;6.10;54.40;;;;;;5019490;28;20195;-92
2022/03/08 11:08:18;;;;;;;3.60;3.30;;;6.20;54.50;;;;;;5019530;28;20547;-92
2022/03/08 11:10:45;;;;;;;5.67;3.57;;;6.30;54.30;;;;;;5019575;28;20181;-91
2022/03/08 11:13:13;;;;;;;4.03;3.23;;;6.40;54.20;;;;;;5019767;28;20176;-91
2022/03/08 11:15:41;;;;;;;3.27;3.07;;;6.40;54.20;;;;;;5019269;28;20185;-91
2022/03/08 11:18:08;;;;;;;3.40;3.20;;;6.30;54.10;;;;;;5038452;28;20179;-91
2022/03/08 11:20:36;;;;;;;3.30;3.00;;;6.30;54.10;;;;;;5038627;28;20169;-92
2022/03/08 11:23:03;;;;;;;4.27;3.20;;;6.20;53.30;;;;;;5038568;28;20204;-91
2022/03/08 11:25:37;;;;;;;3.60;3.30;;;6.00;53.70;;;;;;5018925;28;20187;-88
2022/03/08 11:28:05;;;;;;;3.63;3.33;;;5.80;53.70;;;;;;5019574;28;20168;-90
2022/03/08 11:30:35;;;;;;;2.87;2.67;;;5.70;53.60;;;;;;5037322;28;20169;-93
2022/03/08 11:33:09;;;;;;;3.43;3.10;;;5.90;53.90;;;;;;5018993;28;20251;-89
2022/03/08 11:35:53;;;;;;;3.60;3.30;;;5.90;53.70;;;;;;5036566;28;20631;-91
2022/03/08 11:38:19;;;;;;;3.90;3.50;;;6.00;54.40;;;;;;5036591;28;20321;-89
2022/03/08 11:40:57;;;;;;;3.30;3.10;;;6.20;54.60;;;;;;5018864;28;20210;-90
2022/03/08 11:43:43;;;;;;;3.37;3.07;;;6.20;53.50;;;;;;5017995;28;20204;-91
2022/03/08 11:46:13;;;;;;;3.30;3.10;;;6.30;53.30;;;;;;5036118;28;20199;-91
2022/03/08 11:48:52;;;;;;;3.43;3.13;;;6.30;52.70;;;;;;5036491;28;20255;-92
2022/03/08 11:51:18;;;;;;;3.33;3.10;;;6.40;52.10;;;;;;5018370;28;20191;-88
2022/03/08 11:53:47;;;;;;;2.97;2.77;;;6.50;52.30;;;;;;5036419;28;20187;-91
2022/03/08 11:56:21;;;;;;;3.23;3.03;;;6.60;52.00;;;;;;5019582;28;20704;-89
2022/03/08 11:58:49;;;;;;;3.13;2.80;;;6.70;51.90;;;;;;5020259;28;20622;-91
2022/03/08 12:01:36;;;;;;;3.27;3.07;;;7.00;52.20;;;;;;5020387;28;20179;-88
2022/03/08 12:04:20;;;;;;;3.50;3.20;;;7.30;52.30;;;;;;5037108;28;20287;-89
2022/03/08 12:06:53;;;;;;;3.47;3.00;;;7.50;52.30;;;;;;5042190;28;20540;-87
2022/03/08 12:09:22;;;;;;;4.43;2.87;;;7.50;50.70;;;;;;5044393;28;20169;-87
2022/03/08 12:11:58;;;;;;;3.10;2.90;;;7.50;51.50;;;;;;5021366;28;20213;-87
2022/03/08 12:14:49;;;;;;;2.90;2.70;;;7.60;51.70;;;;;;5036047;28;20169;-89
2022/03/08 12:17:19;;;;;;;3.33;3.13;;;7.60;52.00;;;;;;5017885;28;20175;-90
2022/03/08 12:19:48;;;;;;;3.97;3.50;;;7.60;51.40;;;;;;5017436;28;20200;-89
2022/03/08 12:22:22;;;;;;;3.40;3.20;;;7.50;54.90;;;;;;5035406;28;20176;-89
2022/03/08 12:24:53;;;;;;;3.30;3.00;;;7.60;54.90;;;;;;5035021;28;20209;-88
2022/03/08 12:27:21;;;;;;;3.17;2.97;;;7.60;53.90;;;;;;5035203;28;20170;-89
2022/03/08 12:29:46;;;;;;;3.27;3.07;;;7.70;55.70;;;;;;5046285;28;20180;-88
2022/03/08 12:32:24;;;;;;;3.53;3.30;;;7.80;51.70;;;;;;5028738;28;20653;-89
2022/03/08 12:34:53;;;;;;;3.43;3.20;;;7.80;53.00;;;;;;5036675;28;20218;-88
2022/03/08 12:37:24;;;;;;;3.27;2.90;;;7.70;55.00;;;;;;5035343;28;20225;-89
2022/03/08 12:40:20;;;;;;;4.03;3.17;;;7.60;51.70;;;;;;5036042;28;20188;-89
2022/03/08 12:42:55;;;;;;;3.33;2.70;;;7.40;50.90;;;;;;5019203;28;20642;-92
2022/03/08 12:45:26;;;;;;;3.43;3.23;;;7.30;50.80;;;;;;5019138;28;20599;-92
2022/03/08 12:48:09;;;;;;;3.83;2.63;;;7.20;51.40;;;;;;5036801;28;20218;-91
2022/03/08 12:50:39;;;;;;;3.80;3.00;;;7.30;51.80;;;;;;5036940;28;20161;-93
2022/03/08 12:53:05;;;;;;;2.67;2.53;;;7.20;54.70;;;;;;5018391;28;20174;-91
2022/03/08 12:55:37;;;;;;;2.93;2.70;;;7.20;52.50;;;;;;5018362;28;20716;-89